sensor_id;sensor_type;location;lat;lon;timestamp;P1;durP1;ratioP1;P2;durP2;ratioP2
50337;SDS011;46221;51.178;5.900;2023-07-31T00:00:48;6.13;;;2.10;;
50337;SDS011;46221;51.178;5.900;2023-07-31T00:03:15;4.13;;;1.70;;
50337;SDS011;46221;51.178;5.900;2023-07-31T00:05:41;4.90;;;2.33;;
50337;SDS011;46221;51.178;5.900;2023-07-31T00:08:08;3.95;;;1.83;;
50337;SDS011;46221;51.178;5.900;2023-07-31T00:10:34;3.53;;;2.10;;
50337;SDS011;46221;51.178;5.900;2023-07-31T00:13:00;4.30;;;2.10;;
50337;SDS011;46221;51.178;5.900;2023-07-31T00:15:27;4.97;;;2.22;;
50337;SDS011;46221;51.178;5.900;2023-07-31T00:17:53;4.40;;;2.05;;
50337;SDS011;46221;51.178;5.900;2023-07-31T00:20:22;3.95;;;1.88;;
50337;SDS011;46221;51.178;5.900;2023-07-31T00:22:49;4.75;;;2.22;;
50337;SDS011;46221;51.178;5.900;2023-07-31T00:25:17;4.55;;;2.03;;
50337;SDS011;46221;51.178;5.900;2023-07-31T00:27:44;5.05;;;1.98;;
50337;SDS011;46221;51.178;5.900;2023-07-31T00:30:12;4.43;;;1.90;;
50337;SDS011;46221;51.178;5.900;2023-07-31T00:32:38;5.22;;;2.10;;
50337;SDS011;46221;51.178;5.900;2023-07-31T00:35:05;4.53;;;2.20;;
50337;SDS011;46221;51.178;5.900;2023-07-31T00:37:31;5.38;;;2.00;;
50337;SDS011;46221;51.178;5.900;2023-07-31T00:39:58;4.22;;;2.03;;
50337;SDS011;46221;51.178;5.900;2023-07-31T00:42:29;5.05;;;2.30;;
50337;SDS011;46221;51.178;5.900;2023-07-31T00:44:55;4.13;;;2.10;;
50337;SDS011;46221;51.178;5.900;2023-07-31T00:47:21;5.55;;;2.63;;
50337;SDS011;46221;51.178;5.900;2023-07-31T00:49:48;4.00;;;2.30;;
50337;SDS011;46221;51.178;5.900;2023-07-31T00:52:14;6.28;;;2.30;;
50337;SDS011;46221;51.178;5.900;2023-07-31T00:54:41;4.72;;;1.95;;
50337;SDS011;46221;51.178;5.900;2023-07-31T00:57:07;4.65;;;2.58;;
50337;SDS011;46221;51.178;5.900;2023-07-31T00:59:34;4.53;;;2.20;;
50337;SDS011;46221;51.178;5.900;2023-07-31T01:02:00;4.07;;;2.20;;
50337;SDS011;46221;51.178;5.900;2023-07-31T01:04:29;5.53;;;1.77;;
50337;SDS011;46221;51.178;5.900;2023-07-31T01:07:01;4.32;;;2.03;;
50337;SDS011;46221;51.178;5.900;2023-07-31T01:09:47;5.40;;;2.30;;
50337;SDS011;46221;51.178;5.900;2023-07-31T01:12:15;5.35;;;2.15;;
50337;SDS011;46221;51.178;5.900;2023-07-31T01:15:02;4.53;;;2.10;;
50337;SDS011;46221;51.178;5.900;2023-07-31T01:17:30;4.93;;;2.05;;
50337;SDS011;46221;51.178;5.900;2023-07-31T01:19:57;4.32;;;2.45;;
50337;SDS011;46221;51.178;5.900;2023-07-31T01:24:55;5.35;;;2.20;;
50337;SDS011;46221;51.178;5.900;2023-07-31T01:27:24;5.18;;;2.00;;
50337;SDS011;46221;51.178;5.900;2023-07-31T01:32:21;4.07;;;1.95;;
50337;SDS011;46221;51.178;5.900;2023-07-31T01:34:48;4.07;;;1.90;;
50337;SDS011;46221;51.178;5.900;2023-07-31T01:37:15;3.97;;;1.90;;
50337;SDS011;46221;51.178;5.900;2023-07-31T01:39:41;4.78;;;2.10;;
50337;SDS011;46221;51.178;5.900;2023-07-31T01:42:08;4.13;;;1.90;;
50337;SDS011;46221;51.178;5.900;2023-07-31T01:44:35;4.63;;;1.98;;
50337;SDS011;46221;51.178;5.900;2023-07-31T01:47:02;5.75;;;2.42;;
50337;SDS011;46221;51.178;5.900;2023-07-31T01:49:28;4.50;;;2.28;;
50337;SDS011;46221;51.178;5.900;2023-07-31T01:51:54;3.60;;;2.00;;
50337;SDS011;46221;51.178;5.900;2023-07-31T01:54:21;6.18;;;2.13;;
50337;SDS011;46221;51.178;5.900;2023-07-31T01:56:47;5.18;;;2.38;;
50337;SDS011;46221;51.178;5.900;2023-07-31T01:59:14;4.65;;;2.10;;
50337;SDS011;46221;51.178;5.900;2023-07-31T02:01:40;5.18;;;1.77;;
50337;SDS011;46221;51.178;5.900;2023-07-31T02:04:09;4.55;;;2.03;;
50337;SDS011;46221;51.178;5.900;2023-07-31T02:06:35;4.10;;;2.33;;
50337;SDS011;46221;51.178;5.900;2023-07-31T02:09:02;5.22;;;2.47;;
50337;SDS011;46221;51.178;5.900;2023-07-31T02:11:29;5.13;;;2.05;;
50337;SDS011;46221;51.178;5.900;2023-07-31T02:13:58;5.78;;;2.20;;
50337;SDS011;46221;51.178;5.900;2023-07-31T02:16:24;4.90;;;2.30;;
50337;SDS011;46221;51.178;5.900;2023-07-31T02:18:51;6.20;;;2.30;;
50337;SDS011;46221;51.178;5.900;2023-07-31T02:21:17;6.22;;;2.33;;
50337;SDS011;46221;51.178;5.900;2023-07-31T02:23:43;4.40;;;2.10;;
50337;SDS011;46221;51.178;5.900;2023-07-31T02:26:12;4.40;;;1.98;;
50337;SDS011;46221;51.178;5.900;2023-07-31T02:28:39;4.63;;;2.10;;
50337;SDS011;46221;51.178;5.900;2023-07-31T02:31:05;4.32;;;2.10;;
50337;SDS011;46221;51.178;5.900;2023-07-31T02:33:34;5.13;;;2.58;;
50337;SDS011;46221;51.178;5.900;2023-07-31T02:36:00;4.43;;;2.28;;
50337;SDS011;46221;51.178;5.900;2023-07-31T02:38:27;5.25;;;1.90;;
50337;SDS011;46221;51.178;5.900;2023-07-31T02:40:55;5.22;;;2.35;;
50337;SDS011;46221;51.178;5.900;2023-07-31T02:43:22;4.60;;;2.42;;
50337;SDS011;46221;51.178;5.900;2023-07-31T02:45:51;5.95;;;2.40;;
50337;SDS011;46221;51.178;5.900;2023-07-31T02:48:18;4.03;;;1.90;;
50337;SDS011;46221;51.178;5.900;2023-07-31T02:50:47;4.43;;;2.33;;
50337;SDS011;46221;51.178;5.900;2023-07-31T02:53:15;4.43;;;2.38;;
50337;SDS011;46221;51.178;5.900;2023-07-31T02:55:44;3.92;;;2.03;;
50337;SDS011;46221;51.178;5.900;2023-07-31T02:58:10;3.60;;;1.70;;
50337;SDS011;46221;51.178;5.900;2023-07-31T03:00:42;5.00;;;2.05;;
50337;SDS011;46221;51.178;5.900;2023-07-31T03:03:08;4.20;;;1.90;;
50337;SDS011;46221;51.178;5.900;2023-07-31T03:05:35;4.20;;;2.42;;
50337;SDS011;46221;51.178;5.900;2023-07-31T03:08:01;3.88;;;1.95;;
50337;SDS011;46221;51.178;5.900;2023-07-31T03:10:29;4.65;;;2.15;;
50337;SDS011;46221;51.178;5.900;2023-07-31T03:12:55;3.38;;;1.70;;
50337;SDS011;46221;51.178;5.900;2023-07-31T03:15:22;3.40;;;2.08;;
50337;SDS011;46221;51.178;5.900;2023-07-31T03:17:48;5.20;;;2.30;;
50337;SDS011;46221;51.178;5.900;2023-07-31T03:20:15;4.72;;;2.47;;
50337;SDS011;46221;51.178;5.900;2023-07-31T03:22:45;6.38;;;2.60;;
50337;SDS011;46221;51.178;5.900;2023-07-31T03:25:14;5.40;;;2.38;;
50337;SDS011;46221;51.178;5.900;2023-07-31T03:27:40;5.40;;;2.15;;
50337;SDS011;46221;51.178;5.900;2023-07-31T03:30:06;4.50;;;2.28;;
50337;SDS011;46221;51.178;5.900;2023-07-31T03:32:33;5.35;;;2.22;;
50337;SDS011;46221;51.178;5.900;2023-07-31T03:34:59;5.35;;;2.40;;
50337;SDS011;46221;51.178;5.900;2023-07-31T03:37:26;4.57;;;1.95;;
50337;SDS011;46221;51.178;5.900;2023-07-31T03:39:52;5.00;;;2.38;;
50337;SDS011;46221;51.178;5.900;2023-07-31T03:42:19;4.10;;;1.90;;
50337;SDS011;46221;51.178;5.900;2023-07-31T03:44:45;5.95;;;2.35;;
50337;SDS011;46221;51.178;5.900;2023-07-31T03:47:12;4.10;;;2.00;;
50337;SDS011;46221;51.178;5.900;2023-07-31T03:49:38;4.97;;;2.17;;
50337;SDS011;46221;51.178;5.900;2023-07-31T03:52:04;4.13;;;2.17;;
50337;SDS011;46221;51.178;5.900;2023-07-31T03:54:31;4.88;;;1.90;;
50337;SDS011;46221;51.178;5.900;2023-07-31T03:56:57;3.47;;;2.17;;
50337;SDS011;46221;51.178;5.900;2023-07-31T03:59:24;4.63;;;2.20;;
50337;SDS011;46221;51.178;5.900;2023-07-31T04:01:53;3.65;;;2.17;;
50337;SDS011;46221;51.178;5.900;2023-07-31T04:04:22;3.97;;;2.40;;
50337;SDS011;46221;51.178;5.900;2023-07-31T04:06:50;4.60;;;2.50;;
50337;SDS011;46221;51.178;5.900;2023-07-31T04:09:17;4.22;;;2.20;;
50337;SDS011;46221;51.178;5.900;2023-07-31T04:11:43;4.32;;;2.47;;
50337;SDS011;46221;51.178;5.900;2023-07-31T04:14:09;4.45;;;2.40;;
50337;SDS011;46221;51.178;5.900;2023-07-31T04:16:36;5.03;;;2.40;;
50337;SDS011;46221;51.178;5.900;2023-07-31T04:19:03;4.90;;;2.60;;
50337;SDS011;46221;51.178;5.900;2023-07-31T04:21:31;4.40;;;2.47;;
50337;SDS011;46221;51.178;5.900;2023-07-31T04:23:57;4.50;;;2.35;;
50337;SDS011;46221;51.178;5.900;2023-07-31T04:26:24;4.95;;;2.38;;
50337;SDS011;46221;51.178;5.900;2023-07-31T04:28:51;4.03;;;2.42;;
50337;SDS011;46221;51.178;5.900;2023-07-31T04:31:20;4.68;;;2.80;;
50337;SDS011;46221;51.178;5.900;2023-07-31T04:33:46;4.25;;;2.20;;
50337;SDS011;46221;51.178;5.900;2023-07-31T04:36:15;4.25;;;2.15;;
50337;SDS011;46221;51.178;5.900;2023-07-31T04:38:41;4.68;;;2.20;;
50337;SDS011;46221;51.178;5.900;2023-07-31T04:41:07;3.90;;;2.13;;
50337;SDS011;46221;51.178;5.900;2023-07-31T04:43:34;4.20;;;2.33;;
50337;SDS011;46221;51.178;5.900;2023-07-31T04:46:00;3.75;;;2.15;;
50337;SDS011;46221;51.178;5.900;2023-07-31T04:48:27;5.55;;;2.78;;
50337;SDS011;46221;51.178;5.900;2023-07-31T04:50:56;3.88;;;2.22;;
50337;SDS011;46221;51.178;5.900;2023-07-31T04:53:22;4.07;;;2.30;;
50337;SDS011;46221;51.178;5.900;2023-07-31T04:55:48;7.50;;;2.35;;
50337;SDS011;46221;51.178;5.900;2023-07-31T04:58:17;4.90;;;2.15;;
50337;SDS011;46221;51.178;5.900;2023-07-31T05:00:44;4.78;;;2.13;;
50337;SDS011;46221;51.178;5.900;2023-07-31T05:03:10;4.35;;;2.08;;
50337;SDS011;46221;51.178;5.900;2023-07-31T05:05:38;4.18;;;1.90;;
50337;SDS011;46221;51.178;5.900;2023-07-31T05:08:04;5.60;;;2.30;;
50337;SDS011;46221;51.178;5.900;2023-07-31T05:10:30;3.50;;;2.00;;
50337;SDS011;46221;51.178;5.900;2023-07-31T05:13:02;4.40;;;2.15;;
50337;SDS011;46221;51.178;5.900;2023-07-31T05:15:28;4.00;;;2.63;;
50337;SDS011;46221;51.178;5.900;2023-07-31T05:17:55;4.47;;;2.30;;
50337;SDS011;46221;51.178;5.900;2023-07-31T05:20:21;4.22;;;2.22;;
50337;SDS011;46221;51.178;5.900;2023-07-31T05:22:52;5.30;;;2.20;;
50337;SDS011;46221;51.178;5.900;2023-07-31T05:25:19;3.63;;;2.22;;
50337;SDS011;46221;51.178;5.900;2023-07-31T05:27:45;3.80;;;2.30;;
50337;SDS011;46221;51.178;5.900;2023-07-31T05:30:11;4.55;;;2.30;;
50337;SDS011;46221;51.178;5.900;2023-07-31T05:32:38;4.03;;;1.98;;
50337;SDS011;46221;51.178;5.900;2023-07-31T05:35:04;4.28;;;2.17;;
50337;SDS011;46221;51.178;5.900;2023-07-31T05:37:31;4.10;;;2.38;;
50337;SDS011;46221;51.178;5.900;2023-07-31T05:39:57;3.55;;;2.15;;
50337;SDS011;46221;51.178;5.900;2023-07-31T05:42:23;4.10;;;2.03;;
50337;SDS011;46221;51.178;5.900;2023-07-31T05:44:55;4.30;;;2.35;;
50337;SDS011;46221;51.178;5.900;2023-07-31T05:47:21;5.45;;;1.98;;
50337;SDS011;46221;51.178;5.900;2023-07-31T05:49:48;4.93;;;2.30;;
50337;SDS011;46221;51.178;5.900;2023-07-31T05:52:15;4.70;;;2.40;;
50337;SDS011;46221;51.178;5.900;2023-07-31T05:54:42;4.85;;;2.28;;
50337;SDS011;46221;51.178;5.900;2023-07-31T05:57:08;4.30;;;2.15;;
50337;SDS011;46221;51.178;5.900;2023-07-31T05:59:34;3.85;;;1.88;;
50337;SDS011;46221;51.178;5.900;2023-07-31T06:02:02;3.45;;;2.08;;
50337;SDS011;46221;51.178;5.900;2023-07-31T06:04:28;3.25;;;1.70;;
50337;SDS011;46221;51.178;5.900;2023-07-31T06:06:57;3.95;;;2.22;;
50337;SDS011;46221;51.178;5.900;2023-07-31T06:09:25;2.90;;;1.63;;
50337;SDS011;46221;51.178;5.900;2023-07-31T06:11:52;4.30;;;2.55;;
50337;SDS011;46221;51.178;5.900;2023-07-31T06:14:18;3.63;;;2.08;;
50337;SDS011;46221;51.178;5.900;2023-07-31T06:16:47;3.33;;;1.90;;
50337;SDS011;46221;51.178;5.900;2023-07-31T06:19:13;3.08;;;1.75;;
50337;SDS011;46221;51.178;5.900;2023-07-31T06:21:39;3.78;;;1.90;;
50337;SDS011;46221;51.178;5.900;2023-07-31T06:24:08;3.25;;;1.90;;
50337;SDS011;46221;51.178;5.900;2023-07-31T06:26:37;3.60;;;1.92;;
50337;SDS011;46221;51.178;5.900;2023-07-31T06:29:05;3.33;;;2.08;;
50337;SDS011;46221;51.178;5.900;2023-07-31T06:31:31;4.25;;;2.15;;
50337;SDS011;46221;51.178;5.900;2023-07-31T06:33:58;3.85;;;2.13;;
50337;SDS011;46221;51.178;5.900;2023-07-31T06:36:24;3.67;;;1.88;;
50337;SDS011;46221;51.178;5.900;2023-07-31T06:38:51;4.13;;;2.10;;
50337;SDS011;46221;51.178;5.900;2023-07-31T06:41:20;3.85;;;1.88;;
50337;SDS011;46221;51.178;5.900;2023-07-31T06:43:46;4.13;;;1.92;;
50337;SDS011;46221;51.178;5.900;2023-07-31T06:46:15;3.92;;;2.03;;
50337;SDS011;46221;51.178;5.900;2023-07-31T06:48:41;3.03;;;1.75;;
50337;SDS011;46221;51.178;5.900;2023-07-31T06:51:07;3.35;;;1.77;;
50337;SDS011;46221;51.178;5.900;2023-07-31T06:53:34;3.20;;;1.90;;
50337;SDS011;46221;51.178;5.900;2023-07-31T06:56:01;3.92;;;1.88;;
50337;SDS011;46221;51.178;5.900;2023-07-31T06:58:27;3.92;;;2.00;;
50337;SDS011;46221;51.178;5.900;2023-07-31T07:00:54;3.42;;;1.90;;
50337;SDS011;46221;51.178;5.900;2023-07-31T07:03:22;3.97;;;1.73;;
50337;SDS011;46221;51.178;5.900;2023-07-31T07:05:49;3.42;;;1.88;;
50337;SDS011;46221;51.178;5.900;2023-07-31T07:08:15;3.63;;;1.80;;
50337;SDS011;46221;51.178;5.900;2023-07-31T07:10:43;3.58;;;1.80;;
50337;SDS011;46221;51.178;5.900;2023-07-31T07:13:11;3.63;;;1.80;;
50337;SDS011;46221;51.178;5.900;2023-07-31T07:15:39;3.67;;;1.92;;
50337;SDS011;46221;51.178;5.900;2023-07-31T07:18:05;4.60;;;2.10;;
50337;SDS011;46221;51.178;5.900;2023-07-31T07:20:34;3.97;;;1.90;;
50337;SDS011;46221;51.178;5.900;2023-07-31T07:23:00;2.97;;;1.40;;
50337;SDS011;46221;51.178;5.900;2023-07-31T07:25:26;3.10;;;1.55;;
50337;SDS011;46221;51.178;5.900;2023-07-31T07:27:53;4.05;;;1.83;;
50337;SDS011;46221;51.178;5.900;2023-07-31T07:30:20;3.25;;;1.67;;
50337;SDS011;46221;51.178;5.900;2023-07-31T07:32:46;3.15;;;1.80;;
50337;SDS011;46221;51.178;5.900;2023-07-31T07:35:13;3.75;;;1.77;;
50337;SDS011;46221;51.178;5.900;2023-07-31T07:37:39;3.47;;;1.65;;
50337;SDS011;46221;51.178;5.900;2023-07-31T07:40:06;3.20;;;1.83;;
50337;SDS011;46221;51.178;5.900;2023-07-31T07:42:32;2.92;;;1.70;;
50337;SDS011;46221;51.178;5.900;2023-07-31T07:44:59;3.35;;;1.65;;
50337;SDS011;46221;51.178;5.900;2023-07-31T07:47:25;3.78;;;1.92;;
50337;SDS011;46221;51.178;5.900;2023-07-31T07:49:54;2.60;;;1.55;;
50337;SDS011;46221;51.178;5.900;2023-07-31T07:52:20;4.55;;;1.70;;
50337;SDS011;46221;51.178;5.900;2023-07-31T07:54:49;3.58;;;1.70;;
50337;SDS011;46221;51.178;5.900;2023-07-31T07:57:16;3.30;;;2.00;;
50337;SDS011;46221;51.178;5.900;2023-07-31T07:59:42;2.83;;;1.60;;
50337;SDS011;46221;51.178;5.900;2023-07-31T08:02:08;3.72;;;1.65;;
50337;SDS011;46221;51.178;5.900;2023-07-31T08:04:35;3.28;;;1.70;;
50337;SDS011;46221;51.178;5.900;2023-07-31T08:07:01;3.50;;;1.75;;
50337;SDS011;46221;51.178;5.900;2023-07-31T08:09:27;2.90;;;1.70;;
50337;SDS011;46221;51.178;5.900;2023-07-31T08:11:54;3.05;;;1.67;;
50337;SDS011;46221;51.178;5.900;2023-07-31T08:14:23;3.85;;;1.92;;
50337;SDS011;46221;51.178;5.900;2023-07-31T08:16:49;3.47;;;1.40;;
50337;SDS011;46221;51.178;5.900;2023-07-31T08:19:16;3.50;;;1.70;;
50337;SDS011;46221;51.178;5.900;2023-07-31T08:21:45;2.30;;;1.30;;
50337;SDS011;46221;51.178;5.900;2023-07-31T08:24:13;3.08;;;1.50;;
50337;SDS011;46221;51.178;5.900;2023-07-31T08:26:40;2.60;;;1.52;;
50337;SDS011;46221;51.178;5.900;2023-07-31T08:29:07;2.88;;;1.48;;
50337;SDS011;46221;51.178;5.900;2023-07-31T08:31:36;3.08;;;1.58;;
50337;SDS011;46221;51.178;5.900;2023-07-31T08:34:03;3.60;;;1.67;;
50337;SDS011;46221;51.178;5.900;2023-07-31T08:36:30;3.50;;;1.42;;
50337;SDS011;46221;51.178;5.900;2023-07-31T08:38:56;3.53;;;1.77;;
50337;SDS011;46221;51.178;5.900;2023-07-31T08:41:22;2.33;;;1.50;;
50337;SDS011;46221;51.178;5.900;2023-07-31T08:43:49;3.60;;;1.83;;
50337;SDS011;46221;51.178;5.900;2023-07-31T08:46:16;3.30;;;1.67;;
50337;SDS011;46221;51.178;5.900;2023-07-31T08:48:42;2.55;;;1.52;;
50337;SDS011;46221;51.178;5.900;2023-07-31T08:51:09;2.35;;;1.27;;
50337;SDS011;46221;51.178;5.900;2023-07-31T08:53:35;2.88;;;1.70;;
50337;SDS011;46221;51.178;5.900;2023-07-31T08:56:01;3.15;;;1.50;;
50337;SDS011;46221;51.178;5.900;2023-07-31T08:58:31;2.95;;;1.42;;
50337;SDS011;46221;51.178;5.900;2023-07-31T09:01:01;2.95;;;1.67;;
50337;SDS011;46221;51.178;5.900;2023-07-31T09:03:28;4.20;;;1.83;;
50337;SDS011;46221;51.178;5.900;2023-07-31T09:05:56;3.05;;;1.48;;
50337;SDS011;46221;51.178;5.900;2023-07-31T09:08:23;2.95;;;1.83;;
50337;SDS011;46221;51.178;5.900;2023-07-31T09:10:52;2.80;;;1.65;;
50337;SDS011;46221;51.178;5.900;2023-07-31T09:13:19;3.55;;;2.15;;
50337;SDS011;46221;51.178;5.900;2023-07-31T09:15:46;2.95;;;1.67;;
50337;SDS011;46221;51.178;5.900;2023-07-31T09:18:13;3.28;;;1.70;;
50337;SDS011;46221;51.178;5.900;2023-07-31T09:21:01;3.83;;;1.80;;
50337;SDS011;46221;51.178;5.900;2023-07-31T09:23:28;2.88;;;1.80;;
50337;SDS011;46221;51.178;5.900;2023-07-31T09:26:08;2.95;;;1.75;;
50337;SDS011;46221;51.178;5.900;2023-07-31T09:28:34;2.80;;;1.48;;
50337;SDS011;46221;51.178;5.900;2023-07-31T09:31:01;2.38;;;1.50;;
50337;SDS011;46221;51.178;5.900;2023-07-31T09:33:27;2.78;;;1.70;;
50337;SDS011;46221;51.178;5.900;2023-07-31T09:35:58;3.38;;;1.80;;
50337;SDS011;46221;51.178;5.900;2023-07-31T09:38:28;3.03;;;1.85;;
50337;SDS011;46221;51.178;5.900;2023-07-31T09:40:55;3.03;;;1.60;;
50337;SDS011;46221;51.178;5.900;2023-07-31T09:43:29;3.22;;;1.77;;
50337;SDS011;46221;51.178;5.900;2023-07-31T09:45:57;3.05;;;1.88;;
50337;SDS011;46221;51.178;5.900;2023-07-31T09:48:26;3.97;;;1.88;;
50337;SDS011;46221;51.178;5.900;2023-07-31T09:50:53;3.05;;;1.58;;
50337;SDS011;46221;51.178;5.900;2023-07-31T09:53:24;3.30;;;1.63;;
50337;SDS011;46221;51.178;5.900;2023-07-31T09:55:58;4.30;;;1.73;;
50337;SDS011;46221;51.178;5.900;2023-07-31T09:58:26;3.13;;;1.77;;
50337;SDS011;46221;51.178;5.900;2023-07-31T10:00:54;3.83;;;1.85;;
50337;SDS011;46221;51.178;5.900;2023-07-31T10:03:21;3.25;;;1.35;;
50337;SDS011;46221;51.178;5.900;2023-07-31T10:05:49;2.80;;;1.40;;
50337;SDS011;46221;51.178;5.900;2023-07-31T10:08:16;2.53;;;1.50;;
50337;SDS011;46221;51.178;5.900;2023-07-31T10:10:46;2.55;;;1.42;;
50337;SDS011;46221;51.178;5.900;2023-07-31T10:13:13;3.22;;;1.75;;
50337;SDS011;46221;51.178;5.900;2023-07-31T10:15:40;3.00;;;1.55;;
50337;SDS011;46221;51.178;5.900;2023-07-31T10:18:07;3.67;;;1.60;;
50337;SDS011;46221;51.178;5.900;2023-07-31T10:20:34;3.00;;;1.55;;
50337;SDS011;46221;51.178;5.900;2023-07-31T10:23:01;3.30;;;1.48;;
50337;SDS011;46221;51.178;5.900;2023-07-31T10:25:28;2.40;;;1.40;;
50337;SDS011;46221;51.178;5.900;2023-07-31T10:27:55;3.13;;;1.40;;
50337;SDS011;46221;51.178;5.900;2023-07-31T10:30:25;2.42;;;1.27;;
50337;SDS011;46221;51.178;5.900;2023-07-31T10:32:52;2.75;;;1.40;;
50337;SDS011;46221;51.178;5.900;2023-07-31T10:35:19;3.25;;;1.52;;
50337;SDS011;46221;51.178;5.900;2023-07-31T10:37:48;2.65;;;1.33;;
50337;SDS011;46221;51.178;5.900;2023-07-31T10:40:26;2.30;;;1.20;;
50337;SDS011;46221;51.178;5.900;2023-07-31T10:42:54;3.28;;;1.40;;
50337;SDS011;46221;51.178;5.900;2023-07-31T10:45:44;2.60;;;1.42;;
50337;SDS011;46221;51.178;5.900;2023-07-31T10:48:14;2.58;;;1.40;;
50337;SDS011;46221;51.178;5.900;2023-07-31T10:50:47;2.83;;;1.52;;
50337;SDS011;46221;51.178;5.900;2023-07-31T10:53:24;3.40;;;1.50;;
50337;SDS011;46221;51.178;5.900;2023-07-31T10:55:50;2.20;;;1.20;;
50337;SDS011;46221;51.178;5.900;2023-07-31T10:58:22;2.22;;;1.20;;
50337;SDS011;46221;51.178;5.900;2023-07-31T11:00:48;2.47;;;1.48;;
50337;SDS011;46221;51.178;5.900;2023-07-31T11:03:16;2.20;;;1.27;;
50337;SDS011;46221;51.178;5.900;2023-07-31T11:05:53;2.40;;;1.15;;
50337;SDS011;46221;51.178;5.900;2023-07-31T11:08:29;3.00;;;1.30;;
50337;SDS011;46221;51.178;5.900;2023-07-31T11:11:06;2.50;;;1.35;;
50337;SDS011;46221;51.178;5.900;2023-07-31T11:13:43;2.90;;;1.35;;
50337;SDS011;46221;51.178;5.900;2023-07-31T11:16:11;2.13;;;1.10;;
50337;SDS011;46221;51.178;5.900;2023-07-31T11:18:44;3.38;;;1.10;;
50337;SDS011;46221;51.178;5.900;2023-07-31T11:21:19;2.22;;;1.25;;
50337;SDS011;46221;51.178;5.900;2023-07-31T11:23:50;2.70;;;1.30;;
50337;SDS011;46221;51.178;5.900;2023-07-31T11:26:18;2.45;;;1.50;;
50337;SDS011;46221;51.178;5.900;2023-07-31T11:28:46;2.35;;;1.40;;
50337;SDS011;46221;51.178;5.900;2023-07-31T11:31:13;2.97;;;1.42;;
50337;SDS011;46221;51.178;5.900;2023-07-31T11:33:39;2.58;;;1.30;;
50337;SDS011;46221;51.178;5.900;2023-07-31T11:36:06;2.45;;;1.23;;
50337;SDS011;46221;51.178;5.900;2023-07-31T11:38:33;3.20;;;1.58;;
50337;SDS011;46221;51.178;5.900;2023-07-31T11:41:03;2.72;;;1.33;;
50337;SDS011;46221;51.178;5.900;2023-07-31T11:43:33;2.30;;;1.30;;
50337;SDS011;46221;51.178;5.900;2023-07-31T11:46:00;2.47;;;1.20;;
50337;SDS011;46221;51.178;5.900;2023-07-31T11:48:30;2.80;;;1.55;;
50337;SDS011;46221;51.178;5.900;2023-07-31T11:51:00;3.05;;;1.70;;
50337;SDS011;46221;51.178;5.900;2023-07-31T11:55:54;2.38;;;1.30;;
50337;SDS011;46221;51.178;5.900;2023-07-31T11:58:21;2.70;;;1.40;;
50337;SDS011;46221;51.178;5.900;2023-07-31T12:00:51;2.65;;;1.30;;
50337;SDS011;46221;51.178;5.900;2023-07-31T12:03:18;3.10;;;1.60;;
50337;SDS011;46221;51.178;5.900;2023-07-31T12:05:44;2.95;;;1.65;;
50337;SDS011;46221;51.178;5.900;2023-07-31T12:08:13;2.80;;;1.30;;
50337;SDS011;46221;51.178;5.900;2023-07-31T12:10:41;2.58;;;1.35;;
50337;SDS011;46221;51.178;5.900;2023-07-31T12:13:09;2.70;;;1.48;;
50337;SDS011;46221;51.178;5.900;2023-07-31T12:15:40;2.20;;;1.40;;
50337;SDS011;46221;51.178;5.900;2023-07-31T12:18:09;3.15;;;1.60;;
50337;SDS011;46221;51.178;5.900;2023-07-31T12:20:40;2.00;;;1.20;;
50337;SDS011;46221;51.178;5.900;2023-07-31T12:23:06;3.05;;;1.60;;
50337;SDS011;46221;51.178;5.900;2023-07-31T12:25:34;3.17;;;1.65;;
50337;SDS011;46221;51.178;5.900;2023-07-31T12:28:05;2.95;;;1.73;;
50337;SDS011;46221;51.178;5.900;2023-07-31T12:30:34;2.72;;;1.73;;
50337;SDS011;46221;51.178;5.900;2023-07-31T12:33:04;3.20;;;1.92;;
50337;SDS011;46221;51.178;5.900;2023-07-31T12:35:38;3.20;;;1.70;;
50337;SDS011;46221;51.178;5.900;2023-07-31T12:38:04;2.95;;;1.67;;
50337;SDS011;46221;51.178;5.900;2023-07-31T12:40:31;3.67;;;1.90;;
50337;SDS011;46221;51.178;5.900;2023-07-31T12:43:00;4.05;;;1.90;;
50337;SDS011;46221;51.178;5.900;2023-07-31T12:45:28;3.72;;;2.00;;
50337;SDS011;46221;51.178;5.900;2023-07-31T12:47:55;5.03;;;1.90;;
50337;SDS011;46221;51.178;5.900;2023-07-31T12:50:21;3.08;;;1.88;;
50337;SDS011;46221;51.178;5.900;2023-07-31T12:52:48;2.70;;;1.67;;
50337;SDS011;46221;51.178;5.900;2023-07-31T12:55:15;3.35;;;1.77;;
50337;SDS011;46221;51.178;5.900;2023-07-31T12:57:41;2.92;;;1.58;;
50337;SDS011;46221;51.178;5.900;2023-07-31T13:00:10;3.33;;;1.67;;
50337;SDS011;46221;51.178;5.900;2023-07-31T13:02:37;3.22;;;1.80;;
50337;SDS011;46221;51.178;5.900;2023-07-31T13:05:04;2.92;;;1.63;;
50337;SDS011;46221;51.178;5.900;2023-07-31T13:07:30;3.00;;;1.70;;
50337;SDS011;46221;51.178;5.900;2023-07-31T13:09:57;2.97;;;1.80;;
50337;SDS011;46221;51.178;5.900;2023-07-31T13:12:23;3.15;;;1.75;;
50337;SDS011;46221;51.178;5.900;2023-07-31T13:14:52;2.60;;;1.52;;
50337;SDS011;46221;51.178;5.900;2023-07-31T13:17:21;3.45;;;1.90;;
50337;SDS011;46221;51.178;5.900;2023-07-31T13:19:48;3.03;;;1.65;;
50337;SDS011;46221;51.178;5.900;2023-07-31T13:22:14;2.80;;;1.50;;
50337;SDS011;46221;51.178;5.900;2023-07-31T13:24:41;2.67;;;1.50;;
50337;SDS011;46221;51.178;5.900;2023-07-31T13:27:07;2.83;;;1.85;;
50337;SDS011;46221;51.178;5.900;2023-07-31T13:29:33;4.80;;;1.83;;
50337;SDS011;46221;51.178;5.900;2023-07-31T13:32:04;2.88;;;1.67;;
50337;SDS011;46221;51.178;5.900;2023-07-31T13:34:30;2.95;;;1.75;;
50337;SDS011;46221;51.178;5.900;2023-07-31T13:36:57;2.90;;;1.80;;
50337;SDS011;46221;51.178;5.900;2023-07-31T13:39:23;2.83;;;1.70;;
50337;SDS011;46221;51.178;5.900;2023-07-31T13:41:52;3.22;;;1.83;;
50337;SDS011;46221;51.178;5.900;2023-07-31T13:44:21;3.13;;;1.50;;
50337;SDS011;46221;51.178;5.900;2023-07-31T13:46:47;3.10;;;1.92;;
50337;SDS011;46221;51.178;5.900;2023-07-31T13:49:13;3.90;;;1.73;;
50337;SDS011;46221;51.178;5.900;2023-07-31T13:51:40;2.90;;;1.67;;
50337;SDS011;46221;51.178;5.900;2023-07-31T13:54:06;3.70;;;2.13;;
50337;SDS011;46221;51.178;5.900;2023-07-31T13:56:33;3.50;;;1.80;;
50337;SDS011;46221;51.178;5.900;2023-07-31T13:58:59;4.00;;;2.05;;
50337;SDS011;46221;51.178;5.900;2023-07-31T14:01:27;3.03;;;1.80;;
50337;SDS011;46221;51.178;5.900;2023-07-31T14:03:53;3.80;;;2.05;;
50337;SDS011;46221;51.178;5.900;2023-07-31T14:06:20;3.58;;;1.88;;
50337;SDS011;46221;51.178;5.900;2023-07-31T14:08:46;3.08;;;1.70;;
50337;SDS011;46221;51.178;5.900;2023-07-31T14:11:12;2.80;;;1.73;;
50337;SDS011;46221;51.178;5.900;2023-07-31T14:13:39;4.05;;;2.45;;
50337;SDS011;46221;51.178;5.900;2023-07-31T14:16:05;2.70;;;1.77;;
50337;SDS011;46221;51.178;5.900;2023-07-31T14:18:32;3.85;;;2.00;;
50337;SDS011;46221;51.178;5.900;2023-07-31T14:21:01;3.58;;;2.10;;
50337;SDS011;46221;51.178;5.900;2023-07-31T14:23:27;3.22;;;2.00;;
50337;SDS011;46221;51.178;5.900;2023-07-31T14:25:54;3.63;;;1.80;;
50337;SDS011;46221;51.178;5.900;2023-07-31T14:28:23;3.75;;;2.20;;
50337;SDS011;46221;51.178;5.900;2023-07-31T14:30:49;3.72;;;2.15;;
50337;SDS011;46221;51.178;5.900;2023-07-31T14:33:16;3.80;;;2.20;;
50337;SDS011;46221;51.178;5.900;2023-07-31T14:35:43;3.72;;;2.08;;
50337;SDS011;46221;51.178;5.900;2023-07-31T14:38:09;3.72;;;2.15;;
50337;SDS011;46221;51.178;5.900;2023-07-31T14:40:35;4.13;;;2.22;;
50337;SDS011;46221;51.178;5.900;2023-07-31T14:43:02;4.25;;;2.42;;
50337;SDS011;46221;51.178;5.900;2023-07-31T14:45:30;3.35;;;1.85;;
50337;SDS011;46221;51.178;5.900;2023-07-31T14:47:56;3.97;;;1.92;;
50337;SDS011;46221;51.178;5.900;2023-07-31T14:50:23;3.65;;;2.10;;
50337;SDS011;46221;51.178;5.900;2023-07-31T14:52:50;3.88;;;2.30;;
50337;SDS011;46221;51.178;5.900;2023-07-31T14:55:17;3.55;;;2.25;;
50337;SDS011;46221;51.178;5.900;2023-07-31T14:57:44;5.70;;;2.53;;